Time;durP1;ratioP1;P1;durP2;ratioP2;P2;SDS_P1;SDS_P2;PMS_P1;PMS_P2;Temp;Humidity;BMP_temperature;BMP_pressure;BME280_temperature;BME280_humidity;BME280_pressure;Samples;Min_cycle;Max_cycle;Signal;HPM_P1;HPM_P2
2022/09/27 00:00:43;;;;;;;2.63;1.80;;;17.90;54.30;;;;;;5087219;28;45360;-74
2022/09/27 00:03:10;;;;;;;1.70;1.60;;;17.90;54.30;;;;;;5087621;28;45237;-74
2022/09/27 00:05:37;;;;;;;3.03;1.60;;;17.90;54.30;;;;;;5087540;28;45415;-74
2022/09/27 00:08:04;;;;;;;2.67;1.70;;;17.90;54.30;;;;;;5087072;28;45493;-74
2022/09/27 00:10:31;;;;;;;1.83;1.60;;;17.90;54.30;;;;;;5086812;28;45158;-74
2022/09/27 00:12:58;;;;;;;1.88;1.70;;;17.80;54.20;;;;;;5087332;28;45311;-74
2022/09/27 00:15:25;;;;;;;1.58;1.48;;;17.90;54.30;;;;;;5087313;28;45260;-74
2022/09/27 00:17:53;;;;;;;2.25;1.50;;;17.90;54.30;;;;;;5086901;28;46664;-75
2022/09/27 00:20:21;;;;;;;3.97;1.73;;;17.80;54.30;;;;;;5086859;28;45225;-74
2022/09/27 00:22:48;;;;;;;2.35;1.67;;;17.90;54.40;;;;;;5087060;28;45280;-74
2022/09/27 00:25:15;;;;;;;2.28;1.67;;;17.90;54.40;;;;;;5087162;28;45222;-74
2022/09/27 00:27:41;;;;;;;1.33;1.23;;;17.90;54.30;;;;;;5086812;28;46381;-74
2022/09/27 00:30:09;;;;;;;1.75;1.40;;;17.90;54.40;;;;;;5086828;28;45217;-74
2022/09/27 00:32:36;;;;;;;1.73;1.30;;;17.80;54.30;;;;;;5086913;28;45261;-74
2022/09/27 00:35:05;;;;;;;1.48;1.30;;;17.80;54.30;;;;;;5083892;27;45668;-75
2022/09/27 00:37:32;;;;;;;2.10;1.40;;;17.80;54.30;;;;;;5068108;28;46651;-74
2022/09/27 00:39:59;;;;;;;1.65;1.50;;;17.80;54.30;;;;;;5086789;28;45220;-74
2022/09/27 00:42:25;;;;;;;1.92;1.25;;;17.80;54.30;;;;;;5086707;28;45240;-75
2022/09/27 00:45:12;;;;;;;2.17;1.55;;;17.80;54.30;;;;;;5086938;28;45506;-75
2022/09/27 00:47:42;;;;;;;1.40;1.30;;;17.80;54.40;;;;;;5086521;28;45897;-74
2022/09/27 00:50:22;;;;;;;1.67;1.35;;;17.80;54.30;;;;;;5086560;28;45199;-74
2022/09/27 00:52:54;;;;;;;1.38;1.27;;;17.80;54.30;;;;;;5086608;28;45430;-74
2022/09/27 00:55:23;;;;;;;1.60;1.48;;;17.80;54.30;;;;;;5086771;28;45388;-74
2022/09/27 00:57:50;;;;;;;1.50;1.35;;;17.80;54.30;;;;;;5086258;28;46476;-74
2022/09/27 01:00:17;;;;;;;2.90;1.30;;;17.80;54.30;;;;;;5086504;28;45355;-74
2022/09/27 01:02:45;;;;;;;1.85;1.20;;;17.80;54.30;;;;;;5086564;28;45279;-74
2022/09/27 01:05:14;;;;;;;1.40;1.30;;;17.80;54.30;;;;;;5086657;28;45450;-74
2022/09/27 01:07:41;;;;;;;1.60;1.30;;;17.80;55.00;;;;;;5086179;28;46402;-74
2022/09/27 01:10:08;;;;;;;1.75;1.50;;;17.80;54.40;;;;;;5086247;28;45400;-74
2022/09/27 01:12:40;;;;;;;3.78;1.40;;;17.70;54.30;;;;;;5045822;28;45266;-74
2022/09/27 01:15:12;;;;;;;1.70;1.30;;;17.80;54.40;;;;;;5045977;28;45338;-74
2022/09/27 01:17:44;;;;;;;1.25;1.15;;;17.80;54.40;;;;;;5045732;28;45500;-74
2022/09/27 01:21:02;;;;;;;1.50;1.25;;;17.80;54.40;;;;;;5045591;28;45168;-74
2022/09/27 01:23:54;;;;;;;1.10;1.00;;;17.70;54.40;;;;;;4966746;28;45503;-74
2022/09/27 01:26:29;;;;;;;2.70;1.27;;;17.70;54.40;;;;;;5042516;28;45233;-74
2022/09/27 01:28:58;;;;;;;1.30;1.20;;;17.70;54.40;;;;;;5045429;28;46488;-74
2022/09/27 01:31:28;;;;;;;1.10;1.00;;;17.70;54.30;;;;;;5045462;28;45376;-74
2022/09/27 01:34:01;;;;;;;1.33;1.20;;;17.70;54.40;;;;;;5045610;28;45252;-74
2022/09/27 01:36:29;;;;;;;0.90;0.90;;;17.70;54.30;;;;;;5045577;28;45287;-74
2022/09/27 01:39:03;;;;;;;1.10;1.10;;;17.70;54.40;;;;;;5045241;28;45257;-74
2022/09/27 01:41:34;;;;;;;1.13;1.02;;;17.70;54.40;;;;;;5045264;28;45198;-74
2022/09/27 01:44:02;;;;;;;2.42;1.20;;;17.70;54.40;;;;;;5045502;28;45242;-75
2022/09/27 01:46:33;;;;;;;1.20;1.08;;;17.70;54.40;;;;;;5047214;28;45430;-74
2022/09/27 01:49:00;;;;;;;1.00;1.00;;;17.70;54.40;;;;;;5048765;28;46673;-74
2022/09/27 01:51:29;;;;;;;1.83;1.20;;;17.70;54.40;;;;;;5048741;28;45421;-74
2022/09/27 01:53:58;;;;;;;1.65;1.17;;;17.70;54.40;;;;;;5049145;28;45214;-75
2022/09/27 01:56:26;;;;;;;1.55;1.25;;;17.70;54.40;;;;;;5049236;28;45234;-74
2022/09/27 01:58:56;;;;;;;2.50;0.93;;;17.70;54.40;;;;;;5048851;28;46262;-75
2022/09/27 02:01:22;;;;;;;1.27;0.98;;;17.70;54.40;;;;;;5048649;28;45155;-75
2022/09/27 02:03:51;;;;;;;0.90;0.90;;;17.70;54.40;;;;;;5049151;28;45466;-74
2022/09/27 02:06:19;;;;;;;1.20;1.10;;;17.70;54.40;;;;;;5049142;28;45286;-74
2022/09/27 02:08:48;;;;;;;1.25;1.13;;;17.70;54.40;;;;;;5048815;28;46677;-74
2022/09/27 02:11:15;;;;;;;0.90;0.90;;;17.70;54.40;;;;;;5067198;28;45297;-74
2022/09/27 02:13:45;;;;;;;0.88;0.88;;;17.70;54.40;;;;;;5089281;28;45411;-74
2022/09/27 02:16:20;;;;;;;1.20;0.82;;;17.70;54.50;;;;;;5089339;28;45181;-74
2022/09/27 02:18:53;;;;;;;1.67;1.02;;;17.60;54.40;;;;;;5089037;28;45211;-74
2022/09/27 02:21:20;;;;;;;2.25;1.13;;;17.70;54.40;;;;;;5089002;28;45174;-75
2022/09/27 02:23:48;;;;;;;0.77;0.77;;;17.60;54.40;;;;;;5089212;28;45181;-74
2022/09/27 02:26:16;;;;;;;1.02;0.98;;;17.60;54.40;;;;;;5089137;28;45367;-74
2022/09/27 02:28:45;;;;;;;1.20;1.10;;;17.60;54.40;;;;;;5088976;28;46498;-75
2022/09/27 02:31:11;;;;;;;0.65;0.65;;;17.60;54.40;;;;;;5088861;28;45229;-74
2022/09/27 02:33:40;;;;;;;0.95;0.90;;;17.60;54.30;;;;;;5088950;28;45226;-74
2022/09/27 02:36:09;;;;;;;0.75;0.75;;;17.60;54.40;;;;;;5078068;28;45423;-74
2022/09/27 02:38:35;;;;;;;1.35;0.98;;;17.60;54.40;;;;;;5078934;28;47833;-74
2022/09/27 02:41:02;;;;;;;0.90;0.90;;;17.60;54.40;;;;;;5088617;28;45134;-74
2022/09/27 02:43:30;;;;;;;0.80;0.80;;;17.60;54.40;;;;;;5088840;28;45489;-74
2022/09/27 02:46:05;;;;;;;0.70;0.70;;;17.60;54.40;;;;;;5088805;28;45299;-74
2022/09/27 02:48:34;;;;;;;0.90;0.90;;;17.60;54.40;;;;;;5088615;28;47382;-74
2022/09/27 02:51:13;;;;;;;1.15;0.90;;;17.60;54.40;;;;;;5088434;28;45185;-75
2022/09/27 02:53:45;;;;;;;1.85;0.93;;;17.60;54.40;;;;;;5085838;28;45352;-74
2022/09/27 02:56:16;;;;;;;0.90;0.90;;;17.60;55.00;;;;;;5088638;28;45115;-74
2022/09/27 02:58:48;;;;;;;1.38;0.80;;;17.60;54.40;;;;;;5087208;27;46381;-74
2022/09/27 03:01:17;;;;;;;0.80;0.63;;;17.60;54.50;;;;;;5088179;28;45329;-74
2022/09/27 03:03:46;;;;;;;0.90;0.90;;;17.60;54.50;;;;;;5088415;28;45296;-74
2022/09/27 03:06:16;;;;;;;0.80;0.80;;;17.60;54.50;;;;;;5088511;28;45261;-74
2022/09/27 03:08:43;;;;;;;1.20;1.00;;;17.50;54.40;;;;;;5088081;28;47578;-74
2022/09/27 03:11:10;;;;;;;0.85;0.75;;;17.60;54.50;;;;;;5087916;28;45207;-74
2022/09/27 03:13:37;;;;;;;0.90;0.60;;;17.60;54.50;;;;;;5088169;28;45201;-74
2022/09/27 03:16:04;;;;;;;0.70;0.70;;;17.50;54.40;;;;;;5088338;28;45198;-74
2022/09/27 03:18:31;;;;;;;0.80;0.80;;;17.50;54.40;;;;;;5088091;28;46309;-74
2022/09/27 03:20:58;;;;;;;0.68;0.68;;;17.60;54.40;;;;;;5087935;28;45254;-74
2022/09/27 03:23:26;;;;;;;0.82;0.70;;;17.50;54.40;;;;;;5087962;28;45248;-74
2022/09/27 03:25:53;;;;;;;0.70;0.70;;;17.60;54.50;;;;;;5088156;28;45423;-74
2022/09/27 03:28:20;;;;;;;0.70;0.70;;;17.60;54.50;;;;;;5087780;28;46894;-74
2022/09/27 03:30:47;;;;;;;0.85;0.70;;;17.50;54.40;;;;;;5087757;28;45217;-74
2022/09/27 03:33:13;;;;;;;0.70;0.70;;;17.50;54.40;;;;;;5087964;28;45233;-74
2022/09/27 03:35:41;;;;;;;1.00;0.80;;;17.50;54.40;;;;;;5080969;28;45242;-74
2022/09/27 03:38:08;;;;;;;0.70;0.70;;;17.50;54.40;;;;;;5074075;28;46532;-74
2022/09/27 03:40:36;;;;;;;0.98;0.73;;;17.50;54.40;;;;;;5087633;28;45443;-74
2022/09/27 03:43:03;;;;;;;0.80;0.80;;;17.50;54.40;;;;;;5087616;28;45329;-74
2022/09/27 03:45:30;;;;;;;0.88;0.60;;;17.50;54.50;;;;;;5087938;28;45292;-74
2022/09/27 03:47:57;;;;;;;0.73;0.65;;;17.50;54.50;;;;;;5087537;28;46709;-74
2022/09/27 03:50:24;;;;;;;0.77;0.73;;;17.50;54.50;;;;;;5087522;28;45139;-74
2022/09/27 03:52:51;;;;;;;0.70;0.70;;;17.50;54.50;;;;;;5087558;28;45253;-74
2022/09/27 03:55:18;;;;;;;0.70;0.70;;;17.50;54.50;;;;;;5087615;28;45552;-73
2022/09/27 03:57:46;;;;;;;0.88;0.88;;;17.50;54.50;;;;;;5087207;28;46396;-74
2022/09/27 04:00:14;;;;;;;0.52;0.52;;;17.50;54.60;;;;;;5087325;28;45143;-74
2022/09/27 04:02:41;;;;;;;1.25;0.65;;;17.40;54.50;;;;;;5087368;28;45238;-74
2022/09/27 04:05:08;;;;;;;1.30;0.60;;;17.50;54.50;;;;;;5087504;28;45251;-74
2022/09/27 04:07:35;;;;;;;0.68;0.68;;;17.50;54.50;;;;;;5087051;28;46658;-74
2022/09/27 04:10:02;;;;;;;0.70;0.70;;;17.40;54.50;;;;;;5087005;28;45182;-74
2022/09/27 04:12:28;;;;;;;0.85;0.70;;;17.40;54.50;;;;;;5087074;28;45166;-74
2022/09/27 04:14:57;;;;;;;0.75;0.65;;;17.40;54.50;;;;;;5087397;28;45569;-74
2022/09/27 04:17:24;;;;;;;1.02;0.70;;;17.40;55.10;;;;;;5087022;28;45291;-74
2022/09/27 04:19:51;;;;;;;0.63;0.57;;;17.40;54.50;;;;;;5087205;28;45213;-74
2022/09/27 04:22:18;;;;;;;1.13;0.77;;;17.40;54.50;;;;;;5087084;28;45190;-73
2022/09/27 04:24:44;;;;;;;1.05;0.70;;;17.40;54.50;;;;;;5087482;28;45173;-74
2022/09/27 04:27:11;;;;;;;0.63;0.60;;;17.40;54.50;;;;;;5086820;28;46599;-74
2022/09/27 04:29:41;;;;;;;0.50;0.50;;;17.40;54.50;;;;;;5086804;28;45295;-74
2022/09/27 04:32:10;;;;;;;0.65;0.65;;;17.40;54.50;;;;;;5086938;28;45250;-73
2022/09/27 04:37:21;;;;;;;0.82;0.70;;;17.40;54.50;;;;;;5044171;28;45195;-73
2022/09/27 04:39:48;;;;;;;0.75;0.75;;;17.40;54.50;;;;;;5086713;28;45241;-73
2022/09/27 04:42:15;;;;;;;0.90;0.73;;;17.40;54.50;;;;;;5086842;28;45452;-74
2022/09/27 04:44:41;;;;;;;0.68;0.52;;;17.40;54.50;;;;;;5086793;28;45479;-73
2022/09/27 04:47:10;;;;;;;1.40;0.70;;;17.40;54.50;;;;;;5086525;28;46462;-74
2022/09/27 04:49:37;;;;;;;0.80;0.80;;;17.40;54.50;;;;;;5086466;28;45326;-74
2022/09/27 04:52:04;;;;;;;0.73;0.60;;;17.40;54.50;;;;;;5086587;28;45369;-74
2022/09/27 04:54:31;;;;;;;0.63;0.63;;;17.40;54.50;;;;;;5087006;28;45456;-74
2022/09/27 04:56:58;;;;;;;1.05;0.52;;;17.40;54.50;;;;;;5087202;28;46405;-74
2022/09/27 04:59:26;;;;;;;0.50;0.50;;;17.40;54.50;;;;;;5087173;28;45170;-75
2022/09/27 05:01:52;;;;;;;0.77;0.77;;;17.40;54.50;;;;;;5087271;28;45247;-73
2022/09/27 05:04:21;;;;;;;0.50;0.50;;;17.40;54.50;;;;;;5087016;28;45293;-74
2022/09/27 05:06:48;;;;;;;0.63;0.63;;;17.30;54.40;;;;;;5086531;28;46424;-73
2022/09/27 05:09:15;;;;;;;0.65;0.65;;;17.40;54.40;;;;;;5087054;28;45479;-74
2022/09/27 05:11:42;;;;;;;1.65;0.55;;;17.40;54.50;;;;;;5086880;28;45311;-74
2022/09/27 05:14:09;;;;;;;0.50;0.50;;;17.30;54.50;;;;;;5087244;28;45400;-74
2022/09/27 05:16:36;;;;;;;1.30;0.30;;;17.30;54.50;;;;;;5087103;28;45650;-74
2022/09/27 05:19:02;;;;;;;1.45;0.65;;;17.30;54.50;;;;;;5086897;28;45283;-74
2022/09/27 05:21:31;;;;;;;0.70;0.70;;;17.30;54.50;;;;;;5086642;28;45202;-74
2022/09/27 05:23:58;;;;;;;0.63;0.50;;;17.30;54.50;;;;;;5086997;28;45543;-74
2022/09/27 05:26:25;;;;;;;0.63;0.50;;;17.30;54.50;;;;;;5086685;28;45454;-74
2022/09/27 05:28:52;;;;;;;0.40;0.40;;;17.30;54.50;;;;;;5086852;28;45316;-74
2022/09/27 05:31:19;;;;;;;0.85;0.52;;;17.30;54.50;;;;;;5086939;28;45143;-74
2022/09/27 05:33:45;;;;;;;0.35;0.35;;;17.30;54.50;;;;;;5087042;28;45466;-74
2022/09/27 05:36:12;;;;;;;0.40;0.40;;;17.30;54.50;;;;;;5074975;28;46717;-74
2022/09/27 05:38:41;;;;;;;0.70;0.70;;;17.30;54.60;;;;;;5077700;28;45370;-74
2022/09/27 05:41:07;;;;;;;1.17;0.70;;;17.30;54.50;;;;;;5086947;28;45270;-74
2022/09/27 05:43:35;;;;;;;1.73;0.77;;;17.30;54.60;;;;;;5087062;28;45336;-74
2022/09/27 05:46:02;;;;;;;0.95;0.60;;;17.30;54.60;;;;;;5086642;28;47254;-74
2022/09/27 05:48:29;;;;;;;0.73;0.50;;;17.30;54.50;;;;;;5085794;28;45392;-74
2022/09/27 05:50:55;;;;;;;1.33;0.70;;;17.30;54.60;;;;;;5086787;28;45300;-74
2022/09/27 05:53:22;;;;;;;1.05;0.50;;;17.30;55.10;;;;;;5086864;28;45254;-74
2022/09/27 05:55:50;;;;;;;0.55;0.55;;;17.30;54.50;;;;;;5086453;28;45427;-74
2022/09/27 05:58:17;;;;;;;1.02;0.70;;;17.30;54.50;;;;;;5086678;28;45423;-74
2022/09/27 06:00:44;;;;;;;0.50;0.50;;;17.30;54.60;;;;;;5086735;28;45283;-74
2022/09/27 06:03:11;;;;;;;0.55;0.55;;;17.30;54.60;;;;;;5086485;28;45456;-74
2022/09/27 06:05:39;;;;;;;1.77;0.80;;;17.30;54.50;;;;;;5086365;28;46387;-74
2022/09/27 06:08:06;;;;;;;1.08;0.60;;;17.30;54.60;;;;;;5086817;28;45207;-74
2022/09/27 06:10:33;;;;;;;0.55;0.55;;;17.20;54.50;;;;;;5086094;28;45241;-74
2022/09/27 06:13:02;;;;;;;1.08;0.60;;;17.20;54.60;;;;;;5086610;28;45307;-74
2022/09/27 06:15:30;;;;;;;0.50;0.40;;;17.20;54.60;;;;;;5086171;28;46488;-74
2022/09/27 06:17:57;;;;;;;0.40;0.40;;;17.20;54.60;;;;;;5086290;28;45249;-74
2022/09/27 06:20:24;;;;;;;0.82;0.43;;;17.20;54.50;;;;;;5086499;28;45359;-74
2022/09/27 06:22:52;;;;;;;0.40;0.40;;;17.20;54.60;;;;;;5086302;28;45359;-74
2022/09/27 06:25:20;;;;;;;0.68;0.50;;;17.20;54.60;;;;;;5086041;28;46680;-74
2022/09/27 06:27:47;;;;;;;0.73;0.50;;;17.20;54.60;;;;;;5086108;28;45119;-74
2022/09/27 06:30:15;;;;;;;0.60;0.60;;;17.20;54.60;;;;;;5086437;28;45304;-74
2022/09/27 06:32:42;;;;;;;0.52;0.50;;;17.20;54.60;;;;;;5086645;28;45367;-73
2022/09/27 06:35:09;;;;;;;2.50;0.50;;;17.20;54.60;;;;;;5086256;28;46582;-74
2022/09/27 06:37:35;;;;;;;0.60;0.60;;;17.20;54.70;;;;;;5071345;28;45155;-74
2022/09/27 06:40:02;;;;;;;0.50;0.50;;;17.20;54.60;;;;;;5089696;28;45471;-74
2022/09/27 06:42:29;;;;;;;0.57;0.52;;;17.20;54.60;;;;;;5089685;28;45471;-74
2022/09/27 06:44:56;;;;;;;0.63;0.50;;;17.20;54.60;;;;;;5090503;28;47642;-74
2022/09/27 06:47:26;;;;;;;0.63;0.57;;;17.20;54.60;;;;;;5089702;28;45201;-74
2022/09/27 06:49:52;;;;;;;1.35;0.50;;;17.20;54.60;;;;;;5090263;28;45233;-74
2022/09/27 06:52:19;;;;;;;0.93;0.70;;;17.20;54.60;;;;;;5090026;28;45391;-74
2022/09/27 06:54:46;;;;;;;0.57;0.57;;;17.20;54.60;;;;;;5090027;28;46790;-74
2022/09/27 07:00:22;;;;;;;0.80;0.60;;;17.20;54.60;;;;;;5089551;28;45226;-74
2022/09/27 07:02:47;;;;;;;0.50;0.50;;;17.20;54.70;;;;;;5089761;28;45189;-74
2022/09/27 07:05:14;;;;;;;0.50;0.50;;;17.20;54.60;;;;;;5089454;28;46441;-75
2022/09/27 07:07:41;;;;;;;1.00;0.90;;;17.20;54.60;;;;;;5089630;28;45241;-76
2022/09/27 07:10:08;;;;;;;1.02;0.70;;;17.10;54.50;;;;;;5089548;28;45343;-74
2022/09/27 07:12:36;;;;;;;0.50;0.50;;;17.20;54.60;;;;;;5089771;28;45433;-74
2022/09/27 07:15:03;;;;;;;0.70;0.68;;;17.20;54.60;;;;;;5089799;28;47944;-74
2022/09/27 07:17:30;;;;;;;0.65;0.60;;;17.20;54.60;;;;;;5089039;28;45265;-74
2022/09/27 07:19:58;;;;;;;0.70;0.70;;;17.20;54.50;;;;;;5089617;28;45348;-74
2022/09/27 07:22:25;;;;;;;0.75;0.70;;;17.20;54.50;;;;;;5090276;28;45182;-74
2022/09/27 07:24:52;;;;;;;1.08;0.70;;;17.20;54.50;;;;;;5089008;28;45252;-74
2022/09/27 07:27:18;;;;;;;0.88;0.80;;;17.20;54.50;;;;;;5089345;28;45501;-74
2022/09/27 07:29:45;;;;;;;0.82;0.60;;;17.20;54.50;;;;;;5088446;28;45341;-75
2022/09/27 07:32:12;;;;;;;0.95;0.80;;;17.20;54.50;;;;;;5089329;28;45305;-76
2022/09/27 07:34:39;;;;;;;0.90;0.90;;;17.20;54.50;;;;;;5089077;28;45221;-75
2022/09/27 07:37:07;;;;;;;1.35;0.70;;;17.20;54.50;;;;;;5070872;28;45198;-74
2022/09/27 07:39:34;;;;;;;1.55;0.60;;;17.20;54.50;;;;;;5092563;28;45457;-74
2022/09/27 07:42:01;;;;;;;0.60;0.60;;;17.20;54.40;;;;;;5093107;28;45238;-74
2022/09/27 07:44:28;;;;;;;0.90;0.80;;;17.20;54.50;;;;;;5088743;27;46345;-74
2022/09/27 07:46:55;;;;;;;0.55;0.55;;;17.20;54.40;;;;;;5064324;28;46379;-74
2022/09/27 07:49:21;;;;;;;0.73;0.60;;;17.20;54.40;;;;;;5061445;28;45639;-75
2022/09/27 07:51:48;;;;;;;1.08;0.80;;;17.20;54.40;;;;;;5064645;28;45404;-74
2022/09/27 07:54:16;;;;;;;0.70;0.70;;;17.20;54.40;;;;;;5061282;28;45318;-75
2022/09/27 07:56:45;;;;;;;1.27;1.02;;;17.20;54.40;;;;;;5056580;28;45318;-75
2022/09/27 07:59:11;;;;;;;1.10;0.80;;;17.20;54.40;;;;;;5056341;28;45448;-75
2022/09/27 08:01:38;;;;;;;2.40;0.80;;;17.20;54.50;;;;;;5063561;28;45267;-75
2022/09/27 08:04:05;;;;;;;0.82;0.82;;;17.20;54.50;;;;;;5063865;28;45380;-74
2022/09/27 08:06:32;;;;;;;0.80;0.80;;;17.20;54.50;;;;;;5059301;28;45286;-75
2022/09/27 08:09:00;;;;;;;3.13;1.08;;;17.20;54.40;;;;;;5057629;28;45191;-74
2022/09/27 08:11:28;;;;;;;1.05;0.77;;;17.20;54.40;;;;;;5052919;28;45198;-74
2022/09/27 08:13:55;;;;;;;1.25;1.10;;;17.20;54.40;;;;;;5065318;28;46320;-75
2022/09/27 08:16:22;;;;;;;1.13;1.00;;;17.20;54.40;;;;;;5068615;28;45352;-75
2022/09/27 08:18:49;;;;;;;0.93;0.73;;;17.20;54.50;;;;;;5057007;28;45423;-74
2022/09/27 08:21:16;;;;;;;1.02;0.88;;;17.20;54.50;;;;;;5069249;28;45365;-75
2022/09/27 08:23:43;;;;;;;1.38;1.10;;;17.20;54.50;;;;;;5067363;28;46705;-74
2022/09/27 08:26:10;;;;;;;1.17;1.08;;;17.20;54.50;;;;;;5067504;28;45367;-75
2022/09/27 08:28:38;;;;;;;1.00;0.90;;;17.20;54.50;;;;;;5067004;28;45511;-74
2022/09/27 08:31:05;;;;;;;1.90;1.20;;;17.20;54.50;;;;;;5047550;28;45405;-75
2022/09/27 08:33:32;;;;;;;2.05;1.10;;;17.20;54.50;;;;;;5062970;28;46414;-75
2022/09/27 08:35:58;;;;;;;1.55;1.15;;;17.20;54.60;;;;;;5067416;28;45287;-75
2022/09/27 08:38:25;;;;;;;2.25;1.30;;;17.20;54.60;;;;;;5067578;28;45260;-76
2022/09/27 08:40:54;;;;;;;1.38;1.15;;;17.20;54.70;;;;;;5067116;28;45396;-75
2022/09/27 08:43:28;;;;;;;2.92;1.30;;;17.20;54.70;;;;;;5066983;28;45297;-74
2022/09/27 08:46:03;;;;;;;1.27;1.10;;;17.20;54.70;;;;;;5066228;28;45291;-74
2022/09/27 08:48:30;;;;;;;1.60;1.13;;;17.20;54.70;;;;;;5067473;28;45135;-75
2022/09/27 08:50:57;;;;;;;2.00;1.25;;;17.20;54.70;;;;;;5066967;28;45397;-75
2022/09/27 08:53:25;;;;;;;3.40;1.00;;;17.30;54.70;;;;;;5067218;28;45476;-75
2022/09/27 08:55:52;;;;;;;2.63;1.38;;;17.30;54.70;;;;;;5066170;28;45443;-74
2022/09/27 08:58:21;;;;;;;1.33;1.13;;;17.20;54.70;;;;;;5067364;28;45200;-75
2022/09/27 09:00:50;;;;;;;3.80;1.60;;;17.20;54.70;;;;;;5065817;28;45170;-74
2022/09/27 09:03:19;;;;;;;1.75;1.50;;;17.20;54.70;;;;;;5062826;28;45453;-73
2022/09/27 09:05:51;;;;;;;1.38;1.20;;;17.20;54.80;;;;;;5066367;28;45147;-74
2022/09/27 09:08:23;;;;;;;4.78;1.52;;;17.20;54.90;;;;;;5066443;28;45364;-74
2022/09/27 09:13:52;;;;;;;2.78;1.58;;;17.20;54.90;;;;;;5063808;28;45790;-75
2022/09/27 09:16:27;;;;;;;2.03;1.58;;;17.20;54.80;;;;;;5067348;28;45313;-74
2022/09/27 09:19:04;;;;;;;1.60;1.30;;;17.20;54.90;;;;;;5063818;28;45389;-74
2022/09/27 09:21:35;;;;;;;2.60;1.55;;;17.20;54.90;;;;;;5065813;28;45516;-75
2022/09/27 09:24:09;;;;;;;2.53;1.48;;;17.20;54.90;;;;;;5056536;28;45360;-75
2022/09/27 09:26:38;;;;;;;2.75;1.38;;;17.30;55.00;;;;;;5068715;28;45262;-76
2022/09/27 09:29:16;;;;;;;2.55;1.73;;;17.20;54.90;;;;;;5067714;28;45277;-76
2022/09/27 09:31:46;;;;;;;1.67;1.50;;;17.20;54.90;;;;;;5069636;28;45503;-75
2022/09/27 09:34:17;;;;;;;3.15;1.50;;;17.30;55.00;;;;;;5068548;28;46420;-75
2022/09/27 09:36:45;;;;;;;2.58;1.60;;;17.30;55.20;;;;;;5068541;28;45407;-75
2022/09/27 09:39:14;;;;;;;2.15;1.60;;;17.30;55.10;;;;;;5066773;28;45329;-75
2022/09/27 09:41:43;;;;;;;7.18;1.83;;;17.20;55.10;;;;;;5066288;28;45512;-74
2022/09/27 09:44:13;;;;;;;2.80;1.30;;;17.30;55.30;;;;;;5066825;28;45195;-74
2022/09/27 09:46:41;;;;;;;1.88;1.58;;;17.30;55.30;;;;;;5058456;28;45234;-75
2022/09/27 09:49:13;;;;;;;2.92;1.38;;;17.30;55.30;;;;;;5060256;28;45527;-73
2022/09/27 09:51:44;;;;;;;2.40;1.67;;;17.30;55.20;;;;;;5066112;28;45494;-74
2022/09/27 09:54:15;;;;;;;1.42;1.33;;;17.30;55.30;;;;;;5063801;28;45321;-74
2022/09/27 09:56:44;;;;;;;2.65;1.60;;;17.30;55.30;;;;;;5066595;28;45306;-74
2022/09/27 09:59:12;;;;;;;3.92;1.80;;;17.30;55.30;;;;;;5066512;28;45124;-74
2022/09/27 10:01:41;;;;;;;2.55;1.70;;;17.30;55.30;;;;;;5066512;28;45467;-74
2022/09/27 10:04:09;;;;;;;2.38;1.50;;;17.30;55.30;;;;;;5066020;28;46589;-74
2022/09/27 10:06:36;;;;;;;3.13;1.70;;;17.30;55.30;;;;;;5066743;28;45179;-74
2022/09/27 10:09:04;;;;;;;4.63;1.80;;;17.30;55.30;;;;;;5070257;28;45213;-74
2022/09/27 10:11:35;;;;;;;2.05;1.65;;;17.40;55.30;;;;;;5071116;28;45394;-74
2022/09/27 10:14:02;;;;;;;2.63;1.60;;;17.40;55.50;;;;;;5070128;28;46378;-74
2022/09/27 10:16:29;;;;;;;3.80;1.63;;;17.40;55.40;;;;;;5069975;28;45213;-74
2022/09/27 10:18:59;;;;;;;4.88;1.80;;;17.40;55.40;;;;;;5069937;28;45288;-74
2022/09/27 10:21:28;;;;;;;4.03;1.40;;;17.40;55.50;;;;;;5070129;28;45270;-74
2022/09/27 10:24:14;;;;;;;3.22;1.50;;;17.40;55.50;;;;;;5069648;28;46642;-74
2022/09/27 10:26:43;;;;;;;2.35;1.38;;;17.40;55.50;;;;;;5069666;28;45328;-74
2022/09/27 10:29:19;;;;;;;2.92;1.65;;;17.40;55.50;;;;;;5069596;28;45203;-74
2022/09/27 10:31:47;;;;;;;2.83;1.65;;;17.40;55.70;;;;;;5069981;28;45204;-73
2022/09/27 10:34:29;;;;;;;6.55;2.25;;;17.50;55.80;;;;;;5069403;28;45272;-73
2022/09/27 10:37:03;;;;;;;3.35;1.50;;;17.40;55.80;;;;;;5069480;28;45266;-74
2022/09/27 10:39:31;;;;;;;2.47;1.45;;;17.40;55.90;;;;;;5069356;28;45222;-74
2022/09/27 10:41:58;;;;;;;3.47;1.60;;;17.40;55.70;;;;;;5069270;28;45120;-74
2022/09/27 10:44:26;;;;;;;6.95;1.70;;;17.50;55.90;;;;;;5069332;28;45277;-74
2022/09/27 10:46:53;;;;;;;5.32;1.65;;;17.40;55.90;;;;;;5069646;28;45285;-74
2022/09/27 10:49:21;;;;;;;4.75;1.48;;;17.40;55.90;;;;;;5069682;28;45242;-74
2022/09/27 10:51:50;;;;;;;3.03;1.63;;;17.40;55.80;;;;;;5069344;28;45406;-74
2022/09/27 10:54:21;;;;;;;6.45;1.60;;;17.40;55.90;;;;;;5068799;28;46395;-74
2022/09/27 10:56:54;;;;;;;1.75;1.20;;;17.40;55.90;;;;;;5069232;28;45203;-74
2022/09/27 10:59:21;;;;;;;5.85;1.65;;;17.50;55.90;;;;;;5068976;28;45190;-75
2022/09/27 11:01:49;;;;;;;3.90;1.65;;;17.50;55.90;;;;;;5069414;28;45199;-74
2022/09/27 11:04:20;;;;;;;3.92;1.50;;;17.50;55.80;;;;;;5068683;28;45317;-75
2022/09/27 11:06:47;;;;;;;4.85;1.63;;;17.50;55.80;;;;;;5068893;28;45198;-74
2022/09/27 11:09:19;;;;;;;6.18;2.05;;;17.50;55.80;;;;;;5068880;28;45180;-74
2022/09/27 11:11:46;;;;;;;4.03;1.33;;;17.50;55.80;;;;;;5068691;28;45640;-74
2022/09/27 11:14:24;;;;;;;6.07;1.60;;;17.50;55.80;;;;;;5068597;28;45713;-74
2022/09/27 11:17:16;;;;;;;3.80;1.60;;;17.50;55.80;;;;;;5069576;28;45379;-74
2022/09/27 11:19:52;;;;;;;3.13;1.58;;;17.50;55.80;;;;;;5037192;28;45437;-74
2022/09/27 11:22:30;;;;;;;9.57;1.85;;;17.50;55.70;;;;;;5065887;28;45556;-74
2022/09/27 11:25:02;;;;;;;4.05;1.20;;;17.50;55.70;;;;;;5068197;28;46667;-75
2022/09/27 11:27:34;;;;;;;10.35;2.05;;;17.50;55.80;;;;;;5068682;28;45208;-74
2022/09/27 11:30:05;;;;;;;5.65;1.30;;;17.50;55.60;;;;;;5069687;28;45261;-74
2022/09/27 11:32:44;;;;;;;2.92;1.33;;;17.50;55.60;;;;;;5069459;28;45219;-74
2022/09/27 11:35:40;;;;;;;2.78;1.40;;;17.50;55.60;;;;;;5064297;28;45334;-74
2022/09/27 11:38:14;;;;;;;4.82;1.60;;;17.50;55.60;;;;;;5066671;28;45185;-74
2022/09/27 11:40:59;;;;;;;5.07;1.15;;;17.50;55.60;;;;;;5068411;28;45234;-74
2022/09/27 11:43:36;;;;;;;4.70;1.50;;;17.50;56.20;;;;;;5061022;28;45174;-74
2022/09/27 11:46:08;;;;;;;2.88;1.25;;;17.50;55.50;;;;;;5068363;28;45321;-74
2022/09/27 11:48:49;;;;;;;2.95;1.13;;;17.50;55.60;;;;;;5056664;28;45428;-74
2022/09/27 11:51:31;;;;;;;5.97;1.48;;;17.50;55.60;;;;;;5058832;28;45380;-74
2022/09/27 11:54:09;;;;;;;6.35;1.52;;;17.50;55.50;;;;;;5057343;28;45201;-73
2022/09/27 11:56:41;;;;;;;2.20;1.38;;;17.50;55.50;;;;;;5060841;28;45423;-74
2022/09/27 11:59:31;;;;;;;4.10;1.30;;;17.50;55.50;;;;;;5071066;28;44853;-74
2022/09/27 12:02:02;;;;;;;4.85;1.38;;;17.50;55.50;;;;;;5069293;28;45347;-74
2022/09/27 12:04:57;;;;;;;2.60;1.35;;;17.50;55.50;;;;;;5068477;28;45342;-74
2022/09/27 12:07:29;;;;;;;5.20;1.38;;;17.60;55.50;;;;;;5067982;28;45233;-74
2022/09/27 12:09:57;;;;;;;3.45;1.08;;;17.60;55.30;;;;;;5069027;28;45320;-74
2022/09/27 12:12:25;;;;;;;1.20;1.00;;;17.60;55.20;;;;;;5087267;28;45143;-74
2022/09/27 12:14:53;;;;;;;2.83;1.25;;;17.70;55.00;;;;;;5089226;28;45379;-74
2022/09/27 12:17:22;;;;;;;2.53;1.30;;;17.90;54.80;;;;;;5088688;28;45472;-74
2022/09/27 12:19:51;;;;;;;3.80;1.20;;;17.90;54.50;;;;;;5088847;28;45274;-74
2022/09/27 12:22:20;;;;;;;2.10;1.10;;;17.90;54.60;;;;;;5088388;28;45506;-74
2022/09/27 12:24:47;;;;;;;2.33;1.10;;;17.90;54.80;;;;;;5088712;28;45143;-74
2022/09/27 12:27:16;;;;;;;7.20;1.52;;;17.80;54.80;;;;;;5088495;28;47726;-74
2022/09/27 12:29:44;;;;;;;3.00;1.23;;;17.80;54.90;;;;;;5088171;27;45308;-74
2022/09/27 12:32:13;;;;;;;2.33;1.10;;;17.80;55.10;;;;;;5088421;28;45345;-75
2022/09/27 12:34:44;;;;;;;4.18;1.30;;;17.80;55.10;;;;;;5088837;28;45376;-74
2022/09/27 12:37:12;;;;;;;2.30;1.30;;;17.80;55.30;;;;;;5068431;28;46563;-74
2022/09/27 12:39:44;;;;;;;4.25;1.08;;;17.80;55.40;;;;;;5068001;28;45193;-74
2022/09/27 12:42:15;;;;;;;3.40;1.20;;;17.70;55.50;;;;;;5068440;28;45269;-74
2022/09/27 12:44:41;;;;;;;1.55;1.27;;;17.70;55.70;;;;;;5067702;28;45344;-75
2022/09/27 12:47:11;;;;;;;1.33;0.90;;;17.70;55.70;;;;;;5067655;28;46378;-74
2022/09/27 12:49:45;;;;;;;1.70;0.98;;;17.70;55.80;;;;;;5067636;28;45217;-74
2022/09/27 12:52:12;;;;;;;1.85;0.93;;;17.70;55.80;;;;;;5068032;28;45389;-74
2022/09/27 12:54:52;;;;;;;4.32;1.20;;;17.70;55.80;;;;;;5068297;28;45122;-74
2022/09/27 12:57:26;;;;;;;4.18;1.20;;;17.60;55.80;;;;;;5067602;28;46721;-74
2022/09/27 12:59:59;;;;;;;1.98;1.00;;;17.60;55.80;;;;;;5067662;28;45269;-74
2022/09/27 13:02:40;;;;;;;1.67;0.90;;;17.60;55.80;;;;;;5067730;28;45131;-74
2022/09/27 13:05:22;;;;;;;1.33;0.90;;;17.60;55.70;;;;;;5067826;28;45609;-74
2022/09/27 13:07:53;;;;;;;3.22;1.25;;;17.60;55.80;;;;;;5067286;28;46536;-74